Kingstree, SC

1:35 AM EDT on September 24, 2014 (GMT -0400)
Williamsburg County | Change Station
CLOSE
Current Station
Airport
Location: Kingstree,
Elevation: 66 ft
Nearby Weather Stations

Elev 66 ft 33.72 °N, 79.86 °W | Updated 20 minutes ago

Overcast
Overcast
59 °F
Feels Like 59 °F
N
0
Wind Variable Wind from North

Today
High -- | Low -- °F
--% Chance of Precip.
Yesterday
High -- | Low -- °F
Precip. -- in
7:08 AM 7:13 PM
Waning Crescent, 0% visible
Pressure 30.21 in
Visibility 7.0 miles
Clouds Mostly Cloudy 1300 ft
Mostly Cloudy 2700 ft
Overcast 6500 ft
Dew Point 59 °F
Humidity 100%
Rainfall 0.00 in
Snow Depth Not available.
UV 0 out of 12
Pollen 6.90 out of 12
Air Quality Not available.
Flu Activity Not available.
METAR KCKI 240515Z AUTO 00000KT 7SM RA BKN013 BKN027 OVC065 15/15 A3021 RMK AO2

More Conditions Fewer Conditions

Pressure 30.21 in
Visibility 7.0 miles
Clouds Mostly Cloudy 1300 ft
Mostly Cloudy 2700 ft
Overcast 6500 ft
Dew Point 59 °F
Humidity 100%
Rainfall 0.00 in
Snow Depth Not available.
UV 0 out of 12
Pollen 6.90 out of 12
Air Quality Not available.
Flu Activity Not available.
METAR KCKI 240515Z AUTO 00000KT 7SM RA BKN013 BKN027 OVC065 15/15 A3021 RMK AO2

More Conditions Fewer Conditions

10-Day Weather Forecast

Almanac

Astronomy

Sep. 24, 2014 Rise Set
Actual Time 7:08 AM EDT 7:13 PM EDT
Civil Twilight 6:44 AM EDT 7:38 PM EDT
Nautical Twilight 6:15 AM EDT 8:07 PM EDT
Astronomical Twilight 5:45 AM EDT 8:36 PM EDT
Moon 7:25 AM EDT 7:26 PM EDT
Length of Visible Light 12h 54m
Length of Day
12h 04m
Tomorrow will be 2m 5s shorter.
Waning Crescent, 0% of the Moon is Illuminated
Today
Waning Crescent
Sep 24
New
Oct 1
First Quarter
Oct 8
Full
Oct 15
Last Quarter

Today's Extremes

State Highs State Lows

Community

WunderPhotos

Upload Photos

1,755,891 photos uploaded!

WunderBlogs® & News

Nearby

Snow Depth

Station Depth Elevation
No new snow has been reported.

Earthquake Activity

City Distance Mag. Time & Date
No recent earthquake activity has been reported nearby.
Minimum magnitude displayed is 2.5.

Coastal Water Temperatures

Place Temperature
No Stations Reporting

Nearby Weather Stations